createdAt,value
2023-01-02T00:00:44.330Z,13.47
2023-01-02T00:03:12.833Z,13.52
2023-01-02T00:05:49.969Z,13.41
2023-01-02T00:08:29.810Z,13.38
2023-01-02T00:11:39.177Z,13.30
2023-01-02T00:14:06.546Z,13.30
2023-01-02T00:16:36.342Z,13.36
2023-01-02T00:19:03.663Z,13.33
2023-01-02T00:21:34.267Z,13.36
2023-01-02T00:24:01.772Z,13.31
2023-01-02T00:26:30.949Z,13.30
2023-01-02T00:29:04.150Z,13.19
2023-01-02T00:31:31.629Z,13.24
2023-01-02T00:36:40.446Z,13.25
2023-01-02T00:39:07.393Z,13.28
2023-01-02T00:41:37.240Z,13.24
2023-01-02T00:44:04.789Z,13.23
2023-01-02T00:46:31.765Z,13.25
2023-01-02T00:49:07.899Z,13.20
2023-01-02T00:51:34.816Z,13.14
2023-01-02T00:54:02.010Z,13.14
2023-01-02T00:59:40.805Z,13.14
2023-01-02T01:02:13.701Z,13.19
2023-01-02T01:05:27.142Z,13.16
2023-01-02T01:07:56.143Z,13.05
2023-01-02T01:10:25.014Z,13.04
2023-01-02T01:13:22.099Z,13.02
2023-01-02T01:15:49.438Z,12.97
2023-01-02T01:18:19.486Z,12.94
2023-01-02T01:20:56.113Z,12.95
2023-01-02T01:23:54.657Z,12.93
2023-01-02T01:29:36.088Z,12.88
2023-01-02T01:32:21.723Z,12.97
2023-01-02T01:34:51.432Z,12.84
2023-01-02T01:37:19.870Z,12.91
2023-01-02T01:39:46.950Z,12.96
2023-01-02T01:42:14.816Z,12.90
2023-01-02T01:45:00.618Z,12.92
2023-01-02T01:47:44.134Z,12.90
2023-01-02T01:50:24.444Z,12.85
2023-01-02T01:52:57.804Z,12.81
2023-01-02T01:55:31.238Z,12.75
2023-01-02T01:58:02.581Z,12.70
2023-01-02T02:00:30.367Z,12.71
2023-01-02T02:03:18.117Z,12.74
2023-01-02T02:05:46.308Z,12.63
2023-01-02T02:08:19.081Z,12.70
2023-01-02T02:10:47.428Z,12.68
2023-01-02T02:13:14.984Z,12.65
2023-01-02T02:16:01.348Z,12.66
2023-01-02T02:19:03.103Z,12.60
2023-01-02T02:22:00.942Z,12.48
2023-01-02T02:24:52.330Z,12.47
2023-01-02T02:27:25.327Z,12.50
2023-01-02T02:30:21.663Z,12.50
2023-01-02T02:33:06.752Z,12.44
2023-01-02T02:35:36.559Z,12.41
2023-01-02T02:38:26.328Z,12.38
2023-01-02T02:41:19.699Z,12.42
2023-01-02T02:44:20.905Z,12.40
2023-01-02T02:47:13.485Z,12.38
2023-01-02T02:49:49.518Z,12.38
2023-01-02T02:52:52.728Z,12.37
2023-01-02T02:55:41.249Z,12.40
2023-01-02T02:58:08.942Z,12.44
2023-01-02T03:00:36.596Z,12.46
2023-01-02T03:03:15.332Z,12.39
2023-01-02T03:05:48.162Z,12.35
2023-01-02T03:08:45.025Z,12.31
2023-01-02T03:11:13.212Z,12.36
2023-01-02T03:13:52.471Z,12.32
2023-01-02T03:16:37.026Z,12.33
2023-01-02T03:19:14.795Z,12.29
2023-01-02T03:22:03.582Z,12.29
2023-01-02T03:25:15.168Z,12.26
2023-01-02T03:30:39.895Z,12.25
2023-01-02T03:34:09.527Z,12.22
2023-01-02T03:36:45.168Z,12.22
2023-01-02T03:39:24.329Z,12.36
2023-01-02T03:41:58.107Z,12.35
2023-01-02T03:44:31.380Z,12.32
2023-01-02T03:47:23.474Z,12.32
2023-01-02T03:50:12.666Z,12.34
2023-01-02T03:52:58.703Z,12.30
2023-01-02T03:55:34.766Z,12.35
2023-01-02T03:58:07.920Z,12.33
2023-01-02T04:01:14.273Z,12.38
2023-01-02T04:03:54.049Z,12.37
2023-01-02T04:09:18.815Z,12.18
2023-01-02T04:11:51.506Z,12.10
2023-01-02T04:14:24.939Z,12.05
2023-01-02T04:16:55.143Z,12.06
2023-01-02T04:19:26.965Z,12.07
2023-01-02T04:21:58.231Z,12.05
2023-01-02T04:24:35.204Z,11.99
2023-01-02T04:27:11.034Z,11.89
2023-01-02T04:29:38.272Z,11.83
2023-01-02T04:32:17.637Z,11.84
2023-01-02T04:34:46.517Z,11.79
2023-01-02T04:37:40.922Z,11.82
2023-01-02T04:40:27.549Z,11.80
2023-01-02T04:42:55.361Z,11.74
2023-01-02T04:46:11.995Z,11.71
2023-01-02T04:49:54.825Z,11.64
2023-01-02T04:52:21.835Z,11.66
2023-01-02T04:58:16.409Z,11.69
2023-01-02T05:00:43.754Z,11.58
2023-01-02T05:03:11.723Z,11.59
2023-01-02T05:05:38.677Z,11.56
2023-01-02T05:08:09.326Z,11.60
2023-01-02T05:10:39.228Z,11.63
2023-01-02T05:13:06.094Z,11.61
2023-01-02T05:15:33.071Z,11.64
2023-01-02T05:18:00.111Z,11.70
2023-01-02T05:20:27.004Z,11.70
2023-01-02T05:26:26.693Z,11.59
2023-01-02T05:28:54.562Z,11.66
2023-01-02T05:31:40.314Z,11.60
2023-01-02T05:34:14.812Z,11.58
2023-01-02T05:36:42.267Z,11.56
2023-01-02T05:39:33.990Z,11.57
2023-01-02T05:42:00.979Z,11.56
2023-01-02T05:44:32.266Z,11.55
2023-01-02T05:46:59.183Z,11.49
2023-01-02T05:49:26.137Z,11.50
2023-01-02T05:52:11.732Z,11.48
2023-01-02T05:54:38.703Z,11.45
2023-01-02T05:57:05.547Z,11.44
2023-01-02T05:59:35.912Z,11.44
2023-01-02T06:02:03.609Z,11.46
2023-01-02T06:04:31.031Z,11.42
2023-01-02T06:06:58.126Z,11.38
2023-01-02T06:09:43.772Z,11.30
2023-01-02T06:12:10.739Z,11.26
2023-01-02T06:14:44.909Z,11.24
2023-01-02T06:17:37.006Z,11.21
2023-01-02T06:20:04.251Z,11.19
2023-01-02T06:22:31.151Z,11.18
2023-01-02T06:24:58.678Z,11.11
2023-01-02T06:27:31.757Z,11.16
2023-01-02T06:30:12.974Z,11.13
2023-01-02T06:33:07.084Z,11.18
2023-01-02T06:35:34.080Z,11.14
2023-01-02T06:39:03.815Z,11.10
2023-01-02T06:45:10.169Z,11.06
2023-01-02T06:47:40.228Z,11.04
2023-01-02T06:50:11.238Z,11.09
2023-01-02T06:52:41.097Z,11.09
2023-01-02T06:55:08.855Z,11.14
2023-01-02T06:57:35.876Z,11.19
2023-01-02T07:00:21.285Z,11.22
2023-01-02T07:03:16.885Z,11.30
2023-01-02T07:08:33.889Z,11.36
2023-01-02T07:11:24.863Z,11.32
2023-01-02T07:14:08.493Z,11.29
2023-01-02T07:16:39.410Z,11.33
2023-01-02T07:19:09.625Z,11.30
2023-01-02T07:21:36.560Z,11.31
2023-01-02T07:24:04.481Z,11.34
2023-01-02T07:26:31.437Z,11.45
2023-01-02T07:28:59.063Z,11.36
2023-01-02T07:31:29.353Z,11.29
2023-01-02T07:33:56.364Z,11.29
2023-01-02T07:36:24.375Z,11.32
2023-01-02T07:38:53.179Z,11.29
2023-01-02T07:41:42.160Z,11.30
2023-01-02T07:44:14.335Z,11.22
2023-01-02T07:46:41.434Z,11.24
2023-01-02T07:49:08.403Z,11.28
2023-01-02T07:51:35.365Z,11.32
2023-01-02T07:54:02.400Z,11.36
2023-01-02T07:56:29.403Z,11.37
2023-01-02T07:59:34.001Z,11.42
2023-01-02T08:02:19.949Z,11.46
2023-01-02T08:04:47.018Z,11.46
2023-01-02T08:07:13.953Z,11.49
2023-01-02T08:09:40.944Z,11.44
2023-01-02T08:12:07.841Z,11.46
2023-01-02T08:14:34.787Z,11.49
2023-01-02T08:17:02.554Z,11.55
2023-01-02T08:19:29.641Z,11.51
2023-01-02T08:24:41.200Z,11.50
2023-01-02T08:27:08.148Z,11.49
2023-01-02T08:29:35.045Z,11.54
2023-01-02T08:32:02.014Z,11.54
2023-01-02T08:34:28.952Z,11.56
2023-01-02T08:36:55.838Z,11.58
2023-01-02T08:39:22.732Z,11.60
2023-01-02T08:41:49.657Z,11.68
2023-01-02T08:44:17.319Z,11.68
2023-01-02T08:46:44.410Z,11.68
2023-01-02T08:49:12.348Z,11.71
2023-01-02T08:51:39.497Z,11.74
2023-01-02T08:54:06.617Z,11.79
2023-01-02T08:56:34.052Z,11.90
2023-01-02T08:59:12.067Z,11.93
2023-01-02T09:01:39.788Z,12.00
2023-01-02T09:04:12.074Z,12.00
2023-01-02T09:06:40.068Z,11.98
2023-01-02T09:09:11.373Z,11.97
2023-01-02T09:11:45.279Z,12.00
2023-01-02T09:14:12.322Z,12.04
2023-01-02T09:16:39.410Z,12.03
2023-01-02T09:19:06.481Z,12.10
2023-01-02T09:21:33.431Z,12.15
2023-01-02T09:24:00.698Z,12.21
2023-01-02T09:26:27.857Z,12.26
2023-01-02T09:28:54.865Z,12.33
2023-01-02T09:31:22.285Z,12.41
2023-01-02T09:33:49.525Z,12.49
2023-01-02T09:36:19.461Z,12.58
2023-01-02T09:39:00.805Z,12.65
2023-01-02T09:41:37.363Z,12.73
2023-01-02T09:44:28.732Z,12.78
2023-01-02T09:47:11.315Z,12.84
2023-01-02T09:50:10.303Z,12.91
2023-01-02T09:52:41.737Z,12.97
2023-01-02T09:55:27.415Z,13.04
2023-01-02T09:58:14.528Z,13.11
2023-01-02T10:01:00.583Z,13.14
2023-01-02T10:03:49.245Z,13.21
2023-01-02T10:06:20.333Z,13.29
2023-01-02T10:09:08.535Z,13.34
2023-01-02T10:11:56.812Z,13.43
2023-01-02T10:14:35.005Z,13.52
2023-01-02T10:17:08.497Z,13.62
2023-01-02T10:19:50.275Z,13.72
2023-01-02T10:22:27.672Z,13.80
2023-01-02T10:25:03.558Z,13.88
2023-01-02T10:27:38.237Z,14.03
2023-01-02T10:30:17.286Z,14.10
2023-01-02T10:32:59.952Z,14.21
2023-01-02T10:35:34.607Z,14.37
2023-01-02T10:38:02.340Z,14.50
2023-01-02T10:40:31.882Z,14.64
2023-01-02T10:43:00.944Z,14.73
2023-01-02T10:45:28.835Z,14.82
2023-01-02T10:47:55.707Z,14.88
2023-01-02T10:53:37.183Z,14.92
2023-01-02T10:56:18.839Z,14.88
2023-01-02T10:58:50.715Z,14.87
2023-01-02T11:01:22.393Z,14.83
2023-01-02T11:04:10.393Z,14.83
2023-01-02T11:07:10.767Z,14.80
2023-01-02T11:09:38.420Z,14.79
2023-01-02T11:12:14.213Z,14.81
2023-01-02T11:14:41.682Z,14.83
2023-01-02T11:17:20.985Z,14.84
2023-01-02T11:19:51.486Z,14.86
2023-01-02T11:22:21.612Z,14.91
2023-01-02T11:25:02.488Z,14.92
2023-01-02T11:30:47.338Z,15.06
2023-01-02T11:33:14.301Z,15.10
2023-01-02T11:36:05.744Z,15.18
2023-01-02T11:38:59.274Z,15.23
2023-01-02T11:41:46.197Z,15.25
2023-01-02T11:44:39.453Z,15.32
2023-01-02T11:47:11.949Z,15.32
2023-01-02T11:49:46.046Z,15.31
2023-01-02T11:52:27.855Z,15.35
2023-01-02T11:54:59.586Z,15.37
2023-01-02T11:57:38.996Z,15.40
2023-01-02T12:00:13.182Z,15.43
2023-01-02T12:02:53.183Z,15.45
2023-01-02T12:05:33.127Z,15.46
2023-01-02T12:08:07.024Z,15.45
2023-01-02T12:11:04.637Z,15.49
2023-01-02T12:13:49.724Z,15.48
2023-01-02T12:16:34.538Z,15.50
2023-01-02T12:19:39.975Z,15.50
2023-01-02T12:22:09.551Z,15.46
2023-01-02T12:24:45.422Z,15.49
2023-01-02T12:27:36.919Z,15.53
2023-01-02T12:30:38.670Z,15.51
2023-01-02T12:33:22.195Z,15.49
2023-01-02T12:36:15.676Z,15.51
2023-01-02T12:39:16.957Z,15.52
2023-01-02T12:42:04.500Z,15.53
2023-01-02T12:44:40.871Z,15.57
2023-01-02T12:47:25.929Z,15.60
2023-01-02T12:50:08.509Z,15.61
2023-01-02T12:52:51.719Z,15.63
2023-01-02T12:55:56.048Z,15.66
2023-01-02T12:59:00.101Z,15.66
2023-01-02T13:01:59.425Z,15.65
2023-01-02T13:04:55.897Z,15.66
2023-01-02T13:07:37.227Z,15.66
2023-01-02T13:10:06.125Z,15.66
2023-01-02T13:12:35.877Z,15.70
2023-01-02T13:15:19.023Z,15.73
2023-01-02T13:17:51.842Z,15.73
2023-01-02T13:20:40.261Z,15.75
2023-01-02T13:23:37.104Z,15.80
2023-01-02T13:26:26.018Z,15.78
2023-01-02T13:28:55.048Z,15.80
2023-01-02T13:34:22.123Z,15.83
2023-01-02T13:36:50.658Z,15.85
2023-01-02T13:39:26.086Z,15.87
2023-01-02T13:42:20.587Z,15.89
2023-01-02T13:44:52.671Z,15.89
2023-01-02T13:47:39.401Z,15.91
2023-01-02T13:50:23.176Z,15.90
2023-01-02T13:53:01.872Z,15.90
2023-01-02T13:55:35.313Z,15.90
2023-01-02T13:58:20.432Z,15.90
2023-01-02T14:00:54.232Z,15.88
2023-01-02T14:03:21.893Z,15.86
2023-01-02T14:06:30.890Z,15.83
2023-01-02T14:09:06.723Z,15.81
2023-01-02T14:12:03.098Z,15.84
2023-01-02T14:14:43.289Z,15.82
2023-01-02T14:17:47.883Z,15.82
2023-01-02T14:23:30.831Z,15.81
2023-01-02T14:25:57.833Z,15.80
2023-01-02T14:28:37.070Z,15.82
2023-01-02T14:31:34.234Z,15.83
2023-01-02T14:34:01.575Z,15.80
2023-01-02T14:36:50.231Z,15.82
2023-01-02T14:39:31.086Z,15.82
2023-01-02T14:42:50.150Z,15.82
2023-01-02T14:45:20.635Z,15.80
2023-01-02T14:47:52.655Z,15.79
2023-01-02T14:50:28.765Z,15.82
2023-01-02T14:53:03.271Z,15.81
2023-01-02T14:55:41.627Z,15.81
2023-01-02T14:58:47.090Z,15.79
2023-01-02T15:01:42.239Z,15.80
2023-01-02T15:04:23.502Z,15.79
2023-01-02T15:07:28.413Z,15.80
2023-01-02T15:10:06.458Z,15.79
2023-01-02T15:13:01.679Z,15.78
2023-01-02T15:15:29.728Z,15.72
2023-01-02T15:18:16.441Z,15.69
2023-01-02T15:20:49.183Z,15.69
2023-01-02T15:23:27.333Z,15.71
2023-01-02T15:26:31.493Z,15.70
2023-01-02T15:28:42.763Z,15.69
2023-01-02T15:31:15.737Z,15.70
2023-01-02T15:33:43.481Z,15.69
2023-01-02T15:36:32.855Z,15.69
2023-01-02T15:39:21.546Z,15.68
2023-01-02T15:44:59.629Z,15.65
2023-01-02T15:47:28.479Z,15.62
2023-01-02T15:49:57.701Z,15.63
2023-01-02T15:52:45.015Z,15.63
2023-01-02T15:55:18.013Z,15.62
2023-01-02T15:57:55.348Z,15.61
2023-01-02T16:00:34.011Z,15.61
2023-01-02T16:03:01.297Z,15.59
2023-01-02T16:05:47.810Z,15.58
2023-01-02T16:08:37.867Z,15.59
2023-01-02T16:11:05.335Z,15.55
2023-01-02T16:14:02.011Z,15.56
2023-01-02T16:16:43.335Z,15.52
2023-01-02T16:19:19.732Z,15.47
2023-01-02T16:21:47.576Z,15.42
2023-01-02T16:24:19.708Z,15.44
2023-01-02T16:26:47.042Z,15.45
2023-01-02T16:29:16.984Z,15.45
2023-01-02T16:31:53.609Z,15.45
2023-01-02T16:34:33.405Z,15.47
2023-01-02T16:37:34.383Z,15.46
2023-01-02T16:40:59.902Z,15.46
2023-01-02T16:43:13.906Z,15.43
2023-01-02T16:45:41.409Z,15.46
2023-01-02T16:48:15.410Z,15.47
2023-01-02T16:50:45.187Z,15.46
2023-01-02T16:53:33.607Z,15.48
2023-01-02T16:56:01.063Z,15.45
2023-01-02T16:58:27.994Z,15.43
2023-01-02T17:00:56.240Z,15.42
2023-01-02T17:03:26.311Z,15.41
2023-01-02T17:06:01.876Z,15.42
2023-01-02T17:08:33.133Z,15.43
2023-01-02T17:11:01.168Z,15.43
2023-01-02T17:13:47.308Z,15.42
2023-01-02T17:16:15.357Z,15.39
2023-01-02T17:18:42.405Z,15.41
2023-01-02T17:21:09.820Z,15.41
2023-01-02T17:26:40.063Z,15.42
2023-01-02T17:29:07.006Z,15.41
2023-01-02T17:31:33.985Z,15.41
2023-01-02T17:34:03.185Z,15.41
2023-01-02T17:36:31.188Z,15.40
2023-01-02T17:38:58.315Z,15.38
2023-01-02T17:41:25.773Z,15.42
2023-01-02T17:44:01.775Z,15.43
2023-01-02T17:47:04.242Z,15.45
2023-01-02T17:49:17.656Z,15.43
2023-01-02T17:51:44.568Z,15.44
2023-01-02T17:54:30.274Z,15.47
2023-01-02T17:56:57.686Z,15.45
2023-01-02T17:59:25.085Z,15.45
2023-01-02T18:01:52.562Z,15.45
2023-01-02T18:04:19.919Z,15.45
2023-01-02T18:06:46.995Z,15.45
2023-01-02T18:09:13.869Z,15.44
2023-01-02T18:11:41.005Z,15.44
2023-01-02T18:14:23.277Z,15.44
2023-01-02T18:16:51.700Z,15.43
2023-01-02T18:19:22.441Z,15.40
2023-01-02T18:21:49.622Z,15.37
2023-01-02T18:24:25.122Z,15.39
2023-01-02T18:27:02.220Z,15.38
2023-01-02T18:29:29.194Z,15.33
2023-01-02T18:31:56.257Z,15.39
2023-01-02T18:34:47.759Z,15.41
2023-01-02T18:37:26.439Z,15.36
2023-01-02T18:39:55.043Z,15.34
2023-01-02T18:42:27.700Z,15.37
2023-01-02T18:44:57.929Z,15.36
2023-01-02T18:47:34.629Z,15.39
2023-01-02T18:50:24.325Z,15.39
2023-01-02T18:52:51.936Z,15.38
2023-01-02T18:55:31.302Z,15.39
2023-01-02T18:58:07.887Z,15.37
2023-01-02T19:00:53.870Z,15.37
2023-01-02T19:03:28.406Z,15.36
2023-01-02T19:05:55.296Z,15.32
2023-01-02T19:08:35.667Z,15.31
2023-01-02T19:11:30.885Z,15.31
2023-01-02T19:13:59.107Z,15.31
2023-01-02T19:16:26.108Z,15.33
2023-01-02T19:18:56.451Z,15.34
2023-01-02T19:21:31.347Z,15.34
2023-01-02T19:24:10.050Z,15.36
2023-01-02T19:26:41.115Z,15.36
2023-01-02T19:29:11.295Z,15.38
2023-01-02T19:32:24.589Z,15.40
2023-01-02T19:35:22.711Z,15.39
2023-01-02T19:37:49.661Z,15.36
2023-01-02T19:40:22.241Z,15.37
2023-01-02T19:42:53.991Z,15.40
2023-01-02T19:45:23.424Z,15.40
2023-01-02T19:47:51.461Z,15.41
2023-01-02T19:50:24.397Z,15.42
2023-01-02T19:52:51.841Z,15.42
2023-01-02T19:55:19.247Z,15.41
2023-01-02T19:57:47.254Z,15.40
2023-01-02T20:00:16.802Z,15.39
2023-01-02T20:02:50.302Z,15.37
2023-01-02T20:05:36.894Z,15.34
2023-01-02T20:08:04.103Z,15.29
2023-01-02T20:10:30.966Z,15.30
2023-01-02T20:12:58.441Z,15.28
2023-01-02T20:15:26.968Z,15.22
2023-01-02T20:18:13.106Z,15.21
2023-01-02T20:20:40.004Z,15.18
2023-01-02T20:23:06.938Z,15.16
2023-01-02T20:25:34.012Z,15.16
2023-01-02T20:28:03.397Z,15.14
2023-01-02T20:30:30.349Z,15.11
2023-01-02T20:32:57.286Z,15.10
2023-01-02T20:35:24.237Z,15.07
2023-01-02T20:37:51.227Z,15.07
2023-01-02T20:40:18.219Z,15.05
2023-01-02T20:42:45.201Z,15.02
2023-01-02T20:45:13.121Z,15.00
2023-01-02T20:47:40.038Z,14.97
2023-01-02T20:50:07.410Z,14.96
2023-01-02T20:52:34.282Z,14.94
2023-01-02T20:55:01.202Z,14.92
2023-01-02T20:57:29.487Z,14.92
2023-01-02T20:59:56.592Z,14.88
2023-01-02T21:02:23.841Z,14.87
2023-01-02T21:04:50.799Z,14.85
2023-01-02T21:07:18.058Z,14.83
2023-01-02T21:09:45.073Z,14.80
2023-01-02T21:12:32.003Z,14.78
2023-01-02T21:14:58.919Z,14.76
2023-01-02T21:17:25.820Z,14.75
2023-01-02T21:19:52.772Z,14.75
2023-01-02T21:22:19.637Z,14.74
2023-01-02T21:24:47.130Z,14.74
2023-01-02T21:27:14.898Z,14.71
2023-01-02T21:29:42.482Z,14.67
2023-01-02T21:32:09.487Z,14.61
2023-01-02T21:34:55.073Z,14.55
2023-01-02T21:37:22.140Z,14.56
2023-01-02T21:39:49.794Z,14.57
2023-01-02T21:42:16.693Z,14.58
2023-01-02T21:44:47.239Z,14.55
2023-01-02T21:47:16.545Z,14.55
2023-01-02T21:49:44.318Z,14.56
2023-01-02T21:52:11.406Z,14.54
2023-01-02T21:57:38.649Z,14.53
2023-01-02T22:00:14.957Z,14.50
2023-01-02T22:02:43.426Z,14.52
2023-01-02T22:05:12.701Z,14.52
2023-01-02T22:07:42.599Z,14.50
2023-01-02T22:10:11.366Z,14.51
2023-01-02T22:12:40.197Z,14.47
2023-01-02T22:15:09.162Z,14.45
2023-01-02T22:17:36.099Z,14.42
2023-01-02T22:20:03.124Z,14.42
2023-01-02T22:22:30.022Z,14.39
2023-01-02T22:24:57.038Z,14.40
2023-01-02T22:27:24.079Z,14.37
2023-01-02T22:32:42.238Z,14.37
2023-01-02T22:35:09.900Z,14.34
2023-01-02T22:37:37.053Z,14.35
2023-01-02T22:40:04.315Z,14.32
2023-01-02T22:43:08.251Z,14.31
2023-01-02T22:45:48.876Z,14.28
2023-01-02T22:48:18.596Z,14.27
2023-01-02T22:50:47.084Z,14.21
2023-01-02T22:53:34.951Z,14.19
2023-01-02T22:56:06.670Z,14.15
2023-01-02T22:58:33.589Z,14.17
2023-01-02T23:03:51.881Z,14.11
2023-01-02T23:06:22.209Z,14.13
2023-01-02T23:08:51.813Z,14.14
2023-01-02T23:11:20.579Z,14.13
2023-01-02T23:13:54.534Z,14.12
2023-01-02T23:16:44.473Z,14.15
2023-01-02T23:22:00.908Z,14.13
2023-01-02T23:24:35.251Z,14.16
2023-01-02T23:27:07.121Z,14.12
2023-01-02T23:29:34.864Z,14.16
2023-01-02T23:32:05.378Z,14.20
2023-01-02T23:34:32.715Z,14.22
2023-01-02T23:37:18.535Z,14.24
2023-01-02T23:39:45.640Z,14.20
2023-01-02T23:42:12.472Z,14.18
2023-01-02T23:44:39.699Z,14.20
2023-01-02T23:47:10.246Z,14.15
2023-01-02T23:49:41.101Z,14.12
2023-01-02T23:52:08.225Z,14.08
2023-01-02T23:54:35.197Z,14.08
2023-01-02T23:57:05.432Z,14.08
2023-01-02T23:59:32.525Z,14.11
